Terminal Aerodrome Forecast
Issued by NWS

Home | Current Version | Previous Version | Graphics & Text | Print | Product List | Glossary On
Versions: 1 2 3 4 5 6 7 8 9 10 11 12 13 14 15 16 17 18 19 20 21 22 23 24 25 26
000
FTUS43 KBIS 212322
TAFJMS
TAF
KJMS 212322Z 2200/2224 23004KT P6SM BKN100
     FM220900 27005KT P6SM VCSH BKN020
     FM221200 30007KT P6SM VCSH BKN008
     FM221800 35012KT P6SM OVC005
     FM222100 36015G23KT P6SM OVC010=

USA.gov is the U.S. government's official web portal to all federal, state and local government web resources and services.